sensor_id;sensor_type;location;lat;lon;timestamp;temperature;humidity
13093;DHT22;6612;49.568;11.000;2023-05-18T00:01:09;11.60;46.00
13093;DHT22;6612;49.568;11.000;2023-05-18T00:03:37;11.50;46.80
13093;DHT22;6612;49.568;11.000;2023-05-18T00:06:04;11.50;46.10
13093;DHT22;6612;49.568;11.000;2023-05-18T00:08:32;11.40;46.10
13093;DHT22;6612;49.568;11.000;2023-05-18T00:10:59;11.40;46.30
13093;DHT22;6612;49.568;11.000;2023-05-18T00:13:26;11.30;46.30
13093;DHT22;6612;49.568;11.000;2023-05-18T00:15:53;11.30;46.40
13093;DHT22;6612;49.568;11.000;2023-05-18T00:18:22;11.20;46.40
13093;DHT22;6612;49.568;11.000;2023-05-18T00:20:51;11.20;46.50
13093;DHT22;6612;49.568;11.000;2023-05-18T00:23:24;11.20;46.60
13093;DHT22;6612;49.568;11.000;2023-05-18T00:25:55;11.10;46.60
13093;DHT22;6612;49.568;11.000;2023-05-18T00:28:23;11.10;46.80
13093;DHT22;6612;49.568;11.000;2023-05-18T00:30:50;11.00;46.70
13093;DHT22;6612;49.568;11.000;2023-05-18T00:33:17;11.00;46.80
13093;DHT22;6612;49.568;11.000;2023-05-18T00:35:46;11.00;46.90
13093;DHT22;6612;49.568;11.000;2023-05-18T00:38:13;10.90;47.10
13093;DHT22;6612;49.568;11.000;2023-05-18T00:40:41;10.90;47.10
13093;DHT22;6612;49.568;11.000;2023-05-18T00:43:08;10.90;47.10
13093;DHT22;6612;49.568;11.000;2023-05-18T00:45:35;10.80;47.20
13093;DHT22;6612;49.568;11.000;2023-05-18T00:48:03;10.80;47.30
13093;DHT22;6612;49.568;11.000;2023-05-18T00:50:30;10.80;47.40
13093;DHT22;6612;49.568;11.000;2023-05-18T00:52:59;10.80;47.50
13093;DHT22;6612;49.568;11.000;2023-05-18T00:55:26;10.70;47.60
13093;DHT22;6612;49.568;11.000;2023-05-18T00:57:53;10.70;47.60
13093;DHT22;6612;49.568;11.000;2023-05-18T01:00:21;10.70;47.80
13093;DHT22;6612;49.568;11.000;2023-05-18T01:02:48;10.70;47.90
13093;DHT22;6612;49.568;11.000;2023-05-18T01:05:15;10.60;47.90
13093;DHT22;6612;49.568;11.000;2023-05-18T01:07:45;10.60;48.00
13093;DHT22;6612;49.568;11.000;2023-05-18T01:10:17;10.60;48.20
13093;DHT22;6612;49.568;11.000;2023-05-18T01:12:48;10.60;48.40
13093;DHT22;6612;49.568;11.000;2023-05-18T01:15:17;10.60;48.40
13093;DHT22;6612;49.568;11.000;2023-05-18T01:18:00;10.50;48.40
13093;DHT22;6612;49.568;11.000;2023-05-18T01:20:36;10.60;48.90
13093;DHT22;6612;49.568;11.000;2023-05-18T01:26:14;10.50;48.90
13093;DHT22;6612;49.568;11.000;2023-05-18T01:28:44;10.50;48.70
13093;DHT22;6612;49.568;11.000;2023-05-18T01:31:13;10.40;48.50
13093;DHT22;6612;49.568;11.000;2023-05-18T01:33:41;10.40;48.50
13093;DHT22;6612;49.568;11.000;2023-05-18T01:36:08;10.40;48.60
13093;DHT22;6612;49.568;11.000;2023-05-18T01:38:36;10.40;48.80
13093;DHT22;6612;49.568;11.000;2023-05-18T01:41:11;10.30;48.70
13093;DHT22;6612;49.568;11.000;2023-05-18T01:43:47;10.30;49.00
13093;DHT22;6612;49.568;11.000;2023-05-18T01:46:24;10.30;48.90
13093;DHT22;6612;49.568;11.000;2023-05-18T01:48:59;10.20;49.00
13093;DHT22;6612;49.568;11.000;2023-05-18T01:51:31;10.20;49.00
13093;DHT22;6612;49.568;11.000;2023-05-18T01:54:03;10.20;49.20
13093;DHT22;6612;49.568;11.000;2023-05-18T01:56:33;10.20;49.20
13093;DHT22;6612;49.568;11.000;2023-05-18T01:59:02;10.10;49.10
13093;DHT22;6612;49.568;11.000;2023-05-18T02:01:29;10.10;49.10
13093;DHT22;6612;49.568;11.000;2023-05-18T02:03:57;10.10;49.10
13093;DHT22;6612;49.568;11.000;2023-05-18T02:06:24;10.10;49.20
13093;DHT22;6612;49.568;11.000;2023-05-18T02:08:51;10.00;49.30
13093;DHT22;6612;49.568;11.000;2023-05-18T02:11:20;10.00;49.30
13093;DHT22;6612;49.568;11.000;2023-05-18T02:13:48;10.00;49.30
13093;DHT22;6612;49.568;11.000;2023-05-18T02:16:16;9.90;50.30
13093;DHT22;6612;49.568;11.000;2023-05-18T02:18:44;9.90;50.30
13093;DHT22;6612;49.568;11.000;2023-05-18T02:21:12;9.90;50.40
13093;DHT22;6612;49.568;11.000;2023-05-18T02:23:40;9.80;50.40
13093;DHT22;6612;49.568;11.000;2023-05-18T02:26:07;9.80;50.60
13093;DHT22;6612;49.568;11.000;2023-05-18T02:28:35;9.80;50.60
13093;DHT22;6612;49.568;11.000;2023-05-18T02:31:07;9.80;50.70
13093;DHT22;6612;49.568;11.000;2023-05-18T02:33:36;9.80;50.90
13093;DHT22;6612;49.568;11.000;2023-05-18T02:36:07;9.70;50.80
13093;DHT22;6612;49.568;11.000;2023-05-18T02:38:38;9.70;50.90
13093;DHT22;6612;49.568;11.000;2023-05-18T02:41:05;9.70;51.10
13093;DHT22;6612;49.568;11.000;2023-05-18T02:43:32;9.70;50.90
13093;DHT22;6612;49.568;11.000;2023-05-18T02:45:59;9.60;51.00
13093;DHT22;6612;49.568;11.000;2023-05-18T02:48:28;9.60;51.00
13093;DHT22;6612;49.568;11.000;2023-05-18T02:50:55;9.60;51.20
13093;DHT22;6612;49.568;11.000;2023-05-18T02:53:23;9.60;51.20
13093;DHT22;6612;49.568;11.000;2023-05-18T02:55:53;9.60;51.30
13093;DHT22;6612;49.568;11.000;2023-05-18T02:58:21;9.60;51.50
13093;DHT22;6612;49.568;11.000;2023-05-18T03:00:50;9.50;51.30
13093;DHT22;6612;49.568;11.000;2023-05-18T03:03:19;9.50;51.30
13093;DHT22;6612;49.568;11.000;2023-05-18T03:05:50;9.50;51.40
13093;DHT22;6612;49.568;11.000;2023-05-18T03:08:18;9.50;51.60
13093;DHT22;6612;49.568;11.000;2023-05-18T03:10:47;9.50;51.60
13093;DHT22;6612;49.568;11.000;2023-05-18T03:13:14;9.50;51.60
13093;DHT22;6612;49.568;11.000;2023-05-18T03:15:41;9.40;51.60
13093;DHT22;6612;49.568;11.000;2023-05-18T03:18:10;9.40;51.60
13093;DHT22;6612;49.568;11.000;2023-05-18T03:20:37;9.40;51.70
13093;DHT22;6612;49.568;11.000;2023-05-18T03:23:05;9.40;51.70
13093;DHT22;6612;49.568;11.000;2023-05-18T03:25:33;9.40;51.80
13093;DHT22;6612;49.568;11.000;2023-05-18T03:28:02;9.30;51.70
13093;DHT22;6612;49.568;11.000;2023-05-18T03:30:30;9.30;51.80
13093;DHT22;6612;49.568;11.000;2023-05-18T03:32:58;9.30;51.90
13093;DHT22;6612;49.568;11.000;2023-05-18T03:35:26;9.30;51.90
13093;DHT22;6612;49.568;11.000;2023-05-18T03:37:53;9.30;52.00
13093;DHT22;6612;49.568;11.000;2023-05-18T03:40:22;9.30;52.10
13093;DHT22;6612;49.568;11.000;2023-05-18T03:42:49;9.30;52.20
13093;DHT22;6612;49.568;11.000;2023-05-18T03:45:17;9.30;52.30
13093;DHT22;6612;49.568;11.000;2023-05-18T03:47:44;9.30;52.30
13093;DHT22;6612;49.568;11.000;2023-05-18T03:50:11;9.30;52.40
13093;DHT22;6612;49.568;11.000;2023-05-18T03:52:38;9.30;52.50
13093;DHT22;6612;49.568;11.000;2023-05-18T03:55:06;9.30;52.50
13093;DHT22;6612;49.568;11.000;2023-05-18T03:57:35;9.30;52.60
13093;DHT22;6612;49.568;11.000;2023-05-18T04:00:03;9.40;52.90
13093;DHT22;6612;49.568;11.000;2023-05-18T04:02:33;9.40;52.90
13093;DHT22;6612;49.568;11.000;2023-05-18T04:05:00;9.40;52.90
13093;DHT22;6612;49.568;11.000;2023-05-18T04:07:27;9.50;53.00
13093;DHT22;6612;49.568;11.000;2023-05-18T04:09:55;9.50;53.20
13093;DHT22;6612;49.568;11.000;2023-05-18T04:12:22;9.50;53.30
13093;DHT22;6612;49.568;11.000;2023-05-18T04:14:51;9.60;53.40
13093;DHT22;6612;49.568;11.000;2023-05-18T04:17:19;9.70;53.70
13093;DHT22;6612;49.568;11.000;2023-05-18T04:19:47;9.80;53.90
13093;DHT22;6612;49.568;11.000;2023-05-18T04:22:15;9.90;54.00
13093;DHT22;6612;49.568;11.000;2023-05-18T04:24:43;10.00;53.80
13093;DHT22;6612;49.568;11.000;2023-05-18T04:27:12;10.10;53.20
13093;DHT22;6612;49.568;11.000;2023-05-18T04:29:39;10.30;53.60
13093;DHT22;6612;49.568;11.000;2023-05-18T04:32:09;10.50;54.00
13093;DHT22;6612;49.568;11.000;2023-05-18T04:34:37;10.70;54.30
13093;DHT22;6612;49.568;11.000;2023-05-18T04:37:05;10.90;54.40
13093;DHT22;6612;49.568;11.000;2023-05-18T04:39:33;11.10;54.50
13093;DHT22;6612;49.568;11.000;2023-05-18T04:42:00;11.40;54.70
13093;DHT22;6612;49.568;11.000;2023-05-18T04:44:30;11.60;54.60
13093;DHT22;6612;49.568;11.000;2023-05-18T04:46:59;11.90;54.60
13093;DHT22;6612;49.568;11.000;2023-05-18T04:49:27;12.20;54.80
13093;DHT22;6612;49.568;11.000;2023-05-18T04:51:56;12.50;54.90
13093;DHT22;6612;49.568;11.000;2023-05-18T04:54:25;12.80;55.00
13093;DHT22;6612;49.568;11.000;2023-05-18T04:56:52;13.20;55.00
13093;DHT22;6612;49.568;11.000;2023-05-18T04:59:19;13.60;55.20
13093;DHT22;6612;49.568;11.000;2023-05-18T05:01:51;14.00;55.00
13093;DHT22;6612;49.568;11.000;2023-05-18T05:04:19;14.50;54.50
13093;DHT22;6612;49.568;11.000;2023-05-18T05:06:47;14.80;53.80
13093;DHT22;6612;49.568;11.000;2023-05-18T05:09:15;15.10;53.60
13093;DHT22;6612;49.568;11.000;2023-05-18T05:11:42;15.50;53.70
13093;DHT22;6612;49.568;11.000;2023-05-18T05:14:09;15.80;53.70
13093;DHT22;6612;49.568;11.000;2023-05-18T05:16:37;16.20;54.00
13093;DHT22;6612;49.568;11.000;2023-05-18T05:19:04;16.60;54.20
13093;DHT22;6612;49.568;11.000;2023-05-18T05:21:31;17.00;54.20
13093;DHT22;6612;49.568;11.000;2023-05-18T05:24:00;17.40;53.90
13093;DHT22;6612;49.568;11.000;2023-05-18T05:26:29;17.90;53.40
13093;DHT22;6612;49.568;11.000;2023-05-18T05:28:56;18.30;53.40
13093;DHT22;6612;49.568;11.000;2023-05-18T05:31:23;18.70;52.40
13093;DHT22;6612;49.568;11.000;2023-05-18T05:33:50;19.10;51.70
13093;DHT22;6612;49.568;11.000;2023-05-18T05:36:17;19.50;51.70
13093;DHT22;6612;49.568;11.000;2023-05-18T05:38:44;19.90;51.60
13093;DHT22;6612;49.568;11.000;2023-05-18T05:41:13;20.40;50.60
13093;DHT22;6612;49.568;11.000;2023-05-18T05:43:40;20.90;49.90
13093;DHT22;6612;49.568;11.000;2023-05-18T05:46:07;21.40;49.90
13093;DHT22;6612;49.568;11.000;2023-05-18T05:48:34;22.00;50.00
13093;DHT22;6612;49.568;11.000;2023-05-18T05:51:00;22.60;49.80
13093;DHT22;6612;49.568;11.000;2023-05-18T05:53:27;23.20;49.50
13093;DHT22;6612;49.568;11.000;2023-05-18T05:55:54;23.80;49.00
13093;DHT22;6612;49.568;11.000;2023-05-18T05:58:23;24.50;48.40
13093;DHT22;6612;49.568;11.000;2023-05-18T06:00:50;25.10;47.20
13093;DHT22;6612;49.568;11.000;2023-05-18T06:03:17;25.70;46.50
13093;DHT22;6612;49.568;11.000;2023-05-18T06:05:44;26.30;45.40
13093;DHT22;6612;49.568;11.000;2023-05-18T06:08:11;26.80;44.50
13093;DHT22;6612;49.568;11.000;2023-05-18T06:10:38;27.30;43.70
13093;DHT22;6612;49.568;11.000;2023-05-18T06:13:06;27.90;43.10
13093;DHT22;6612;49.568;11.000;2023-05-18T06:15:34;28.30;42.10
13093;DHT22;6612;49.568;11.000;2023-05-18T06:18:01;28.80;40.50
13093;DHT22;6612;49.568;11.000;2023-05-18T06:20:28;29.20;39.70
13093;DHT22;6612;49.568;11.000;2023-05-18T06:22:55;29.40;38.40
13093;DHT22;6612;49.568;11.000;2023-05-18T06:25:22;29.70;37.10
13093;DHT22;6612;49.568;11.000;2023-05-18T06:27:49;29.80;36.10
13093;DHT22;6612;49.568;11.000;2023-05-18T06:30:17;29.80;35.20
13093;DHT22;6612;49.568;11.000;2023-05-18T06:32:45;29.90;34.80
13093;DHT22;6612;49.568;11.000;2023-05-18T06:35:12;30.00;34.20
13093;DHT22;6612;49.568;11.000;2023-05-18T06:37:39;30.10;34.70
13093;DHT22;6612;49.568;11.000;2023-05-18T06:40:07;30.20;34.40
13093;DHT22;6612;49.568;11.000;2023-05-18T06:42:35;30.40;33.90
13093;DHT22;6612;49.568;11.000;2023-05-18T06:45:02;30.50;32.00
13093;DHT22;6612;49.568;11.000;2023-05-18T06:47:29;30.50;31.50
13093;DHT22;6612;49.568;11.000;2023-05-18T06:49:57;30.40;30.60
13093;DHT22;6612;49.568;11.000;2023-05-18T06:52:24;30.20;30.40
13093;DHT22;6612;49.568;11.000;2023-05-18T06:54:51;30.10;31.10
13093;DHT22;6612;49.568;11.000;2023-05-18T06:57:18;30.10;31.10
13093;DHT22;6612;49.568;11.000;2023-05-18T06:59:45;30.20;30.90
13093;DHT22;6612;49.568;11.000;2023-05-18T07:02:18;30.20;29.80
13093;DHT22;6612;49.568;11.000;2023-05-18T07:04:46;30.00;28.90
13093;DHT22;6612;49.568;11.000;2023-05-18T07:07:14;29.60;28.30
13093;DHT22;6612;49.568;11.000;2023-05-18T07:09:42;29.00;27.80
13093;DHT22;6612;49.568;11.000;2023-05-18T07:12:10;28.40;27.90
13093;DHT22;6612;49.568;11.000;2023-05-18T07:14:37;27.80;27.90
13093;DHT22;6612;49.568;11.000;2023-05-18T07:17:04;27.20;27.90
13093;DHT22;6612;49.568;11.000;2023-05-18T07:19:32;26.50;27.90
13093;DHT22;6612;49.568;11.000;2023-05-18T07:21:59;25.80;28.20
13093;DHT22;6612;49.568;11.000;2023-05-18T07:24:28;25.20;28.60
13093;DHT22;6612;49.568;11.000;2023-05-18T07:26:55;24.60;29.10
13093;DHT22;6612;49.568;11.000;2023-05-18T07:29:22;24.10;29.20
13093;DHT22;6612;49.568;11.000;2023-05-18T07:31:49;23.70;29.50
13093;DHT22;6612;49.568;11.000;2023-05-18T07:34:16;23.30;29.60
13093;DHT22;6612;49.568;11.000;2023-05-18T07:36:43;23.00;29.90
13093;DHT22;6612;49.568;11.000;2023-05-18T07:39:10;22.70;30.20
13093;DHT22;6612;49.568;11.000;2023-05-18T07:41:44;22.40;30.50
13093;DHT22;6612;49.568;11.000;2023-05-18T07:44:11;22.10;30.70
13093;DHT22;6612;49.568;11.000;2023-05-18T07:46:39;21.80;30.90
13093;DHT22;6612;49.568;11.000;2023-05-18T07:49:06;21.60;31.30
13093;DHT22;6612;49.568;11.000;2023-05-18T07:51:33;21.50;31.70
13093;DHT22;6612;49.568;11.000;2023-05-18T07:54:00;21.40;31.90
13093;DHT22;6612;49.568;11.000;2023-05-18T07:56:27;21.30;31.90
13093;DHT22;6612;49.568;11.000;2023-05-18T07:58:56;21.20;32.90
13093;DHT22;6612;49.568;11.000;2023-05-18T08:01:23;21.10;32.50
13093;DHT22;6612;49.568;11.000;2023-05-18T08:03:52;21.00;32.20
13093;DHT22;6612;49.568;11.000;2023-05-18T08:06:19;21.00;32.20
13093;DHT22;6612;49.568;11.000;2023-05-18T08:08:46;20.80;32.20
13093;DHT22;6612;49.568;11.000;2023-05-18T08:11:13;20.70;32.60
13093;DHT22;6612;49.568;11.000;2023-05-18T08:13:40;20.70;32.80
13093;DHT22;6612;49.568;11.000;2023-05-18T08:16:09;20.70;33.20
13093;DHT22;6612;49.568;11.000;2023-05-18T08:18:36;20.60;32.80
13093;DHT22;6612;49.568;11.000;2023-05-18T08:21:03;20.60;32.90
13093;DHT22;6612;49.568;11.000;2023-05-18T08:23:32;20.60;33.30
13093;DHT22;6612;49.568;11.000;2023-05-18T08:25:59;20.50;33.10
13093;DHT22;6612;49.568;11.000;2023-05-18T08:28:28;20.50;33.40
13093;DHT22;6612;49.568;11.000;2023-05-18T08:30:55;20.50;33.70
13093;DHT22;6612;49.568;11.000;2023-05-18T08:33:24;20.50;33.60
13093;DHT22;6612;49.568;11.000;2023-05-18T08:35:51;20.60;33.60
13093;DHT22;6612;49.568;11.000;2023-05-18T08:38:18;20.60;33.50
13093;DHT22;6612;49.568;11.000;2023-05-18T08:40:51;20.70;33.90
13093;DHT22;6612;49.568;11.000;2023-05-18T08:43:21;20.80;33.60
13093;DHT22;6612;49.568;11.000;2023-05-18T08:46:00;20.90;33.70
13093;DHT22;6612;49.568;11.000;2023-05-18T08:48:30;20.90;33.30
13093;DHT22;6612;49.568;11.000;2023-05-18T08:50:58;21.00;33.20
13093;DHT22;6612;49.568;11.000;2023-05-18T08:53:28;21.00;33.40
13093;DHT22;6612;49.568;11.000;2023-05-18T08:55:59;21.00;33.00
13093;DHT22;6612;49.568;11.000;2023-05-18T08:58:31;21.10;32.80
13093;DHT22;6612;49.568;11.000;2023-05-18T09:01:00;21.10;32.30
13093;DHT22;6612;49.568;11.000;2023-05-18T09:03:29;21.10;32.60
13093;DHT22;6612;49.568;11.000;2023-05-18T09:05:58;21.10;32.30
13093;DHT22;6612;49.568;11.000;2023-05-18T09:08:26;21.10;32.50
13093;DHT22;6612;49.568;11.000;2023-05-18T09:10:56;21.10;32.40
13093;DHT22;6612;49.568;11.000;2023-05-18T09:13:23;21.10;32.20
13093;DHT22;6612;49.568;11.000;2023-05-18T09:15:51;21.10;32.40
13093;DHT22;6612;49.568;11.000;2023-05-18T09:18:18;21.10;32.60
13093;DHT22;6612;49.568;11.000;2023-05-18T09:20:47;21.10;32.50
13093;DHT22;6612;49.568;11.000;2023-05-18T09:23:15;21.20;32.20
13093;DHT22;6612;49.568;11.000;2023-05-18T09:25:43;21.10;32.10
13093;DHT22;6612;49.568;11.000;2023-05-18T09:28:11;21.10;32.60
13093;DHT22;6612;49.568;11.000;2023-05-18T09:30:40;21.10;32.10
13093;DHT22;6612;49.568;11.000;2023-05-18T09:33:17;21.10;32.10
13093;DHT22;6612;49.568;11.000;2023-05-18T09:35:49;21.10;31.80
13093;DHT22;6612;49.568;11.000;2023-05-18T09:38:16;21.00;31.80
13093;DHT22;6612;49.568;11.000;2023-05-18T09:40:47;21.00;32.10
13093;DHT22;6612;49.568;11.000;2023-05-18T09:43:16;21.00;32.00
13093;DHT22;6612;49.568;11.000;2023-05-18T09:45:44;21.00;32.30
13093;DHT22;6612;49.568;11.000;2023-05-18T09:48:13;21.00;32.20
13093;DHT22;6612;49.568;11.000;2023-05-18T09:50:42;21.00;31.70
13093;DHT22;6612;49.568;11.000;2023-05-18T09:53:13;20.90;31.80
13093;DHT22;6612;49.568;11.000;2023-05-18T09:55:44;20.90;32.00
13093;DHT22;6612;49.568;11.000;2023-05-18T09:58:12;20.90;31.90
13093;DHT22;6612;49.568;11.000;2023-05-18T10:00:41;20.90;32.40
13093;DHT22;6612;49.568;11.000;2023-05-18T10:03:18;20.90;31.80
13093;DHT22;6612;49.568;11.000;2023-05-18T10:05:46;21.00;31.90
13093;DHT22;6612;49.568;11.000;2023-05-18T10:08:15;21.10;32.70
13093;DHT22;6612;49.568;11.000;2023-05-18T10:10:44;21.20;31.80
13093;DHT22;6612;49.568;11.000;2023-05-18T10:13:12;21.20;32.00
13093;DHT22;6612;49.568;11.000;2023-05-18T10:15:49;21.30;32.00
13093;DHT22;6612;49.568;11.000;2023-05-18T10:18:20;21.40;31.70
13093;DHT22;6612;49.568;11.000;2023-05-18T10:20:49;21.40;31.60
13093;DHT22;6612;49.568;11.000;2023-05-18T10:23:19;21.30;31.80
13093;DHT22;6612;49.568;11.000;2023-05-18T10:25:47;21.30;31.30
13093;DHT22;6612;49.568;11.000;2023-05-18T10:28:19;21.20;31.20
13093;DHT22;6612;49.568;11.000;2023-05-18T10:30:53;21.20;31.30
13093;DHT22;6612;49.568;11.000;2023-05-18T10:33:22;21.20;31.40
13093;DHT22;6612;49.568;11.000;2023-05-18T10:35:51;21.20;31.70
13093;DHT22;6612;49.568;11.000;2023-05-18T10:38:20;21.20;31.60
13093;DHT22;6612;49.568;11.000;2023-05-18T10:40:49;21.20;32.00
13093;DHT22;6612;49.568;11.000;2023-05-18T10:43:21;21.20;31.80
13093;DHT22;6612;49.568;11.000;2023-05-18T10:45:52;21.20;31.10
13093;DHT22;6612;49.568;11.000;2023-05-18T10:48:21;21.10;31.50
13093;DHT22;6612;49.568;11.000;2023-05-18T10:50:49;21.10;31.10
13093;DHT22;6612;49.568;11.000;2023-05-18T10:53:18;21.00;30.90
13093;DHT22;6612;49.568;11.000;2023-05-18T10:55:48;20.90;31.20
13093;DHT22;6612;49.568;11.000;2023-05-18T10:58:17;20.90;31.20
13093;DHT22;6612;49.568;11.000;2023-05-18T11:00:48;20.90;31.50
13093;DHT22;6612;49.568;11.000;2023-05-18T11:03:17;20.80;31.40
13093;DHT22;6612;49.568;11.000;2023-05-18T11:05:48;20.90;31.70
13093;DHT22;6612;49.568;11.000;2023-05-18T11:08:24;20.90;31.50
13093;DHT22;6612;49.568;11.000;2023-05-18T11:11:00;20.90;31.00
13093;DHT22;6612;49.568;11.000;2023-05-18T11:13:29;20.90;31.00
13093;DHT22;6612;49.568;11.000;2023-05-18T11:16:04;20.90;31.40
13093;DHT22;6612;49.568;11.000;2023-05-18T11:18:37;20.80;30.90
13093;DHT22;6612;49.568;11.000;2023-05-18T11:21:17;20.80;30.90
13093;DHT22;6612;49.568;11.000;2023-05-18T11:24:12;20.70;30.50
13093;DHT22;6612;49.568;11.000;2023-05-18T11:26:42;20.70;30.80
13093;DHT22;6612;49.568;11.000;2023-05-18T11:29:18;20.70;31.40
13093;DHT22;6612;49.568;11.000;2023-05-18T11:31:46;20.60;31.10
13093;DHT22;6612;49.568;11.000;2023-05-18T11:34:35;20.60;31.30
13093;DHT22;6612;49.568;11.000;2023-05-18T11:37:02;20.60;31.20
13093;DHT22;6612;49.568;11.000;2023-05-18T11:39:31;20.50;31.30
13093;DHT22;6612;49.568;11.000;2023-05-18T11:42:00;20.50;31.30
13093;DHT22;6612;49.568;11.000;2023-05-18T11:44:28;20.50;31.30
13093;DHT22;6612;49.568;11.000;2023-05-18T11:46:59;20.40;31.40
13093;DHT22;6612;49.568;11.000;2023-05-18T11:49:28;20.40;31.60
13093;DHT22;6612;49.568;11.000;2023-05-18T11:52:04;20.40;31.90
13093;DHT22;6612;49.568;11.000;2023-05-18T11:54:39;20.50;31.60
13093;DHT22;6612;49.568;11.000;2023-05-18T11:57:08;20.50;31.70
13093;DHT22;6612;49.568;11.000;2023-05-18T11:59:37;20.50;31.80
13093;DHT22;6612;49.568;11.000;2023-05-18T12:02:04;20.60;32.00
13093;DHT22;6612;49.568;11.000;2023-05-18T12:04:32;20.60;31.70
13093;DHT22;6612;49.568;11.000;2023-05-18T12:07:03;20.70;31.70
13093;DHT22;6612;49.568;11.000;2023-05-18T12:09:31;20.70;30.70
13093;DHT22;6612;49.568;11.000;2023-05-18T12:11:59;20.70;31.60
13093;DHT22;6612;49.568;11.000;2023-05-18T12:14:28;20.80;31.40
13093;DHT22;6612;49.568;11.000;2023-05-18T12:16:57;20.80;31.20
13093;DHT22;6612;49.568;11.000;2023-05-18T12:19:25;20.90;31.40
13093;DHT22;6612;49.568;11.000;2023-05-18T12:21:52;20.90;32.30
13093;DHT22;6612;49.568;11.000;2023-05-18T12:24:19;21.10;32.20
13093;DHT22;6612;49.568;11.000;2023-05-18T12:26:46;21.10;31.80
13093;DHT22;6612;49.568;11.000;2023-05-18T12:29:14;21.20;31.80
13093;DHT22;6612;49.568;11.000;2023-05-18T12:31:47;21.20;31.40
13093;DHT22;6612;49.568;11.000;2023-05-18T12:34:15;21.30;31.30
13093;DHT22;6612;49.568;11.000;2023-05-18T12:36:50;21.30;31.00
13093;DHT22;6612;49.568;11.000;2023-05-18T12:39:18;21.30;30.60
13093;DHT22;6612;49.568;11.000;2023-05-18T12:41:45;21.30;31.00
13093;DHT22;6612;49.568;11.000;2023-05-18T12:44:12;21.20;30.80
13093;DHT22;6612;49.568;11.000;2023-05-18T12:46:40;21.20;30.90
13093;DHT22;6612;49.568;11.000;2023-05-18T12:49:09;21.20;30.60
13093;DHT22;6612;49.568;11.000;2023-05-18T12:51:38;21.20;30.90
13093;DHT22;6612;49.568;11.000;2023-05-18T12:54:06;21.10;31.00
13093;DHT22;6612;49.568;11.000;2023-05-18T12:56:53;21.10;31.20
13093;DHT22;6612;49.568;11.000;2023-05-18T12:59:24;21.20;30.40
13093;DHT22;6612;49.568;11.000;2023-05-18T13:01:52;21.10;30.70
13093;DHT22;6612;49.568;11.000;2023-05-18T13:04:20;21.10;30.80
13093;DHT22;6612;49.568;11.000;2023-05-18T13:06:47;21.10;30.60
13093;DHT22;6612;49.568;11.000;2023-05-18T13:09:15;21.00;30.30
13093;DHT22;6612;49.568;11.000;2023-05-18T13:11:48;21.00;30.70
13093;DHT22;6612;49.568;11.000;2023-05-18T13:14:19;21.00;31.00
13093;DHT22;6612;49.568;11.000;2023-05-18T13:16:49;21.10;31.30
13093;DHT22;6612;49.568;11.000;2023-05-18T13:19:17;21.10;31.50
13093;DHT22;6612;49.568;11.000;2023-05-18T13:21:47;21.20;31.50
13093;DHT22;6612;49.568;11.000;2023-05-18T13:24:20;21.20;30.80
13093;DHT22;6612;49.568;11.000;2023-05-18T13:26:47;21.20;30.90
13093;DHT22;6612;49.568;11.000;2023-05-18T13:29:14;21.20;30.80
13093;DHT22;6612;49.568;11.000;2023-05-18T13:31:42;21.20;30.60
13093;DHT22;6612;49.568;11.000;2023-05-18T13:34:10;21.20;30.60
13093;DHT22;6612;49.568;11.000;2023-05-18T13:36:37;21.20;30.60
13093;DHT22;6612;49.568;11.000;2023-05-18T13:39:05;21.20;30.60
13093;DHT22;6612;49.568;11.000;2023-05-18T13:41:32;21.20;30.30
13093;DHT22;6612;49.568;11.000;2023-05-18T13:44:01;21.20;30.60
13093;DHT22;6612;49.568;11.000;2023-05-18T13:46:29;21.30;30.70
13093;DHT22;6612;49.568;11.000;2023-05-18T13:48:56;21.30;30.60
13093;DHT22;6612;49.568;11.000;2023-05-18T13:51:23;21.30;30.70
13093;DHT22;6612;49.568;11.000;2023-05-18T13:53:49;21.30;31.50
13093;DHT22;6612;49.568;11.000;2023-05-18T13:56:18;21.40;30.20
13093;DHT22;6612;49.568;11.000;2023-05-18T13:58:45;21.40;30.30
13093;DHT22;6612;49.568;11.000;2023-05-18T14:01:12;21.40;30.40
13093;DHT22;6612;49.568;11.000;2023-05-18T14:03:42;21.30;30.30
13093;DHT22;6612;49.568;11.000;2023-05-18T14:06:09;21.30;30.20
13093;DHT22;6612;49.568;11.000;2023-05-18T14:08:36;21.30;30.30
13093;DHT22;6612;49.568;11.000;2023-05-18T14:11:03;21.30;30.70
13093;DHT22;6612;49.568;11.000;2023-05-18T14:13:32;21.40;30.80
13093;DHT22;6612;49.568;11.000;2023-05-18T14:15:59;21.50;30.80
13093;DHT22;6612;49.568;11.000;2023-05-18T14:18:26;21.50;30.80
13093;DHT22;6612;49.568;11.000;2023-05-18T14:20:53;21.60;30.40
13093;DHT22;6612;49.568;11.000;2023-05-18T14:23:22;21.60;30.20
13093;DHT22;6612;49.568;11.000;2023-05-18T14:25:49;21.60;30.20
13093;DHT22;6612;49.568;11.000;2023-05-18T14:28:16;21.50;30.00
13093;DHT22;6612;49.568;11.000;2023-05-18T14:30:44;21.50;30.00
13093;DHT22;6612;49.568;11.000;2023-05-18T14:33:11;21.40;29.70
13093;DHT22;6612;49.568;11.000;2023-05-18T14:35:38;21.40;29.70
13093;DHT22;6612;49.568;11.000;2023-05-18T14:38:05;21.30;29.70
13093;DHT22;6612;49.568;11.000;2023-05-18T14:40:32;21.20;29.70
13093;DHT22;6612;49.568;11.000;2023-05-18T14:42:59;21.20;29.80
13093;DHT22;6612;49.568;11.000;2023-05-18T14:45:26;21.20;30.00
13093;DHT22;6612;49.568;11.000;2023-05-18T14:47:55;21.20;29.90
13093;DHT22;6612;49.568;11.000;2023-05-18T14:50:22;21.20;29.90
13093;DHT22;6612;49.568;11.000;2023-05-18T14:52:49;21.20;29.90
13093;DHT22;6612;49.568;11.000;2023-05-18T14:55:16;21.20;29.60
13093;DHT22;6612;49.568;11.000;2023-05-18T14:57:43;21.10;29.60
13093;DHT22;6612;49.568;11.000;2023-05-18T15:00:11;21.10;29.70
13093;DHT22;6612;49.568;11.000;2023-05-18T15:02:39;21.10;29.90
13093;DHT22;6612;49.568;11.000;2023-05-18T15:05:08;21.00;29.60
13093;DHT22;6612;49.568;11.000;2023-05-18T15:07:35;21.00;29.60
13093;DHT22;6612;49.568;11.000;2023-05-18T15:10:03;20.90;29.30
13093;DHT22;6612;49.568;11.000;2023-05-18T15:12:30;20.90;29.60
13093;DHT22;6612;49.568;11.000;2023-05-18T15:14:57;20.90;29.60
13093;DHT22;6612;49.568;11.000;2023-05-18T15:17:24;20.90;29.80
13093;DHT22;6612;49.568;11.000;2023-05-18T15:19:51;20.90;29.90
13093;DHT22;6612;49.568;11.000;2023-05-18T15:22:20;20.90;29.70
13093;DHT22;6612;49.568;11.000;2023-05-18T15:24:47;20.90;29.40
13093;DHT22;6612;49.568;11.000;2023-05-18T15:27:14;20.90;29.30
13093;DHT22;6612;49.568;11.000;2023-05-18T15:29:41;20.90;29.20
13093;DHT22;6612;49.568;11.000;2023-05-18T15:32:08;20.90;29.10
13093;DHT22;6612;49.568;11.000;2023-05-18T15:34:35;20.90;29.20
13093;DHT22;6612;49.568;11.000;2023-05-18T15:37:02;20.90;29.20
13093;DHT22;6612;49.568;11.000;2023-05-18T15:39:31;20.90;29.10
13093;DHT22;6612;49.568;11.000;2023-05-18T15:41:58;20.90;29.00
13093;DHT22;6612;49.568;11.000;2023-05-18T15:44:25;20.90;28.50